首页
METAR-TAF:

METAR-TAF

机场 :

安斯巴赫, 德国

纬度: 49-19N, 经度: 010-38E, 海拔: 467米

当前天气观测

该预报发布于15分钟前的02:56 UTC
风速19节,风向西,有时为29节阵风
温度 4°C
湿度 75%
气压 1020 hPa
能见度10公里或以上
多云层高于2900英尺
阴天层高于3900英尺

METAR: ETEB 210256Z AUTO 28019G29KT 9999 BKN029 OVC039 04/00 A3012 RMK AO2 PK WND 28033/21 SLP226 60005 T00360003 52043 $

时间: 04:11 (03:11 UTC)

预报

预报有效从21日的 02点(UTC)到 22日的 04点(UTC)
风速20节,风向西,有时为30节阵风
能見度: 6000
阴天层高于1500英尺
阵雨
短暂存在
从 21日的 02点(UTC)到 21日的 05点(UTC)
风速30节,风向西转西南,有时为40节阵风
成为
从 21日的 05点(UTC)到 21日的 06点(UTC)
风速10节,风向西,有时为20节阵风
能见度10公里或以上
散云层高于2000英尺
成为
从 21日的 16点(UTC)到 21日的 17点(UTC)
风速9节,风向西
能见度10公里或以上
散云层高于5000英尺
多云层高于9000英尺

TAF: ETEB 2102/2204 26020G30KT 6000 SHRA OVC015 620158 510021 540152 QNH3003INS TEMPO 2102/2105 25030G40KT BECMG 2105/2106 27010G20KT 9999 NSW SCT020 QNH3026INS BECMG 2116/2117 26009KT 9999 SCT050 BKN090 QNH3035INS TX05/2113Z TN01/2106Z

超过4000个机场的气象观测和天气预报(METAR&TAF报告)。

可查询的气象台以黄色和红色小点在地图上表示。

将鼠标移到小点上方,可查看气象台名称。

然后点击查看天气观测和预报。

如需切换地图:点击带黑十字的绿色按钮放大地图;点击带横线的绿色按钮缩小地图;或者点击绿色箭头查看邻近地区的地图。


METAR-TAF: